sensor_id;sensor_type;location;lat;lon;timestamp;P1;durP1;ratioP1;P2;durP2;ratioP2
16393;SDS011;8306;51.128;4.476;2024-01-30T00:01:58;6.67;;;6.17;;
16393;SDS011;8306;51.128;4.476;2024-01-30T00:04:24;6.87;;;6.33;;
16393;SDS011;8306;51.128;4.476;2024-01-30T00:06:51;6.10;;;5.60;;
16393;SDS011;8306;51.128;4.476;2024-01-30T00:09:17;6.93;;;6.20;;
16393;SDS011;8306;51.128;4.476;2024-01-30T00:11:43;6.20;;;5.80;;
16393;SDS011;8306;51.128;4.476;2024-01-30T00:14:10;7.57;;;6.87;;
16393;SDS011;8306;51.128;4.476;2024-01-30T00:16:36;7.23;;;6.60;;
16393;SDS011;8306;51.128;4.476;2024-01-30T00:19:03;7.00;;;6.40;;
16393;SDS011;8306;51.128;4.476;2024-01-30T00:21:29;7.10;;;6.60;;
16393;SDS011;8306;51.128;4.476;2024-01-30T00:23:56;7.07;;;6.47;;
16393;SDS011;8306;51.128;4.476;2024-01-30T00:26:22;6.77;;;6.27;;
16393;SDS011;8306;51.128;4.476;2024-01-30T00:28:49;6.63;;;6.13;;
16393;SDS011;8306;51.128;4.476;2024-01-30T00:31:15;6.80;;;6.30;;
16393;SDS011;8306;51.128;4.476;2024-01-30T00:33:42;6.43;;;5.90;;
16393;SDS011;8306;51.128;4.476;2024-01-30T00:36:08;6.20;;;5.70;;
16393;SDS011;8306;51.128;4.476;2024-01-30T00:38:35;5.97;;;5.57;;
16393;SDS011;8306;51.128;4.476;2024-01-30T00:41:01;6.30;;;5.80;;
16393;SDS011;8306;51.128;4.476;2024-01-30T00:43:28;6.97;;;6.30;;
16393;SDS011;8306;51.128;4.476;2024-01-30T00:45:54;6.10;;;5.60;;
16393;SDS011;8306;51.128;4.476;2024-01-30T00:48:21;5.80;;;5.37;;
16393;SDS011;8306;51.128;4.476;2024-01-30T00:50:47;5.70;;;5.20;;
16393;SDS011;8306;51.128;4.476;2024-01-30T00:53:14;5.93;;;5.33;;
16393;SDS011;8306;51.128;4.476;2024-01-30T00:55:40;5.77;;;5.27;;
16393;SDS011;8306;51.128;4.476;2024-01-30T00:58:07;5.27;;;4.87;;
16393;SDS011;8306;51.128;4.476;2024-01-30T01:00:33;5.63;;;5.13;;
16393;SDS011;8306;51.128;4.476;2024-01-30T01:03:00;5.80;;;5.27;;
16393;SDS011;8306;51.128;4.476;2024-01-30T01:05:26;5.93;;;5.43;;
16393;SDS011;8306;51.128;4.476;2024-01-30T01:07:52;4.77;;;4.37;;
16393;SDS011;8306;51.128;4.476;2024-01-30T01:10:19;5.57;;;5.07;;
16393;SDS011;8306;51.128;4.476;2024-01-30T01:12:45;5.10;;;4.77;;
16393;SDS011;8306;51.128;4.476;2024-01-30T01:15:12;5.30;;;4.80;;
16393;SDS011;8306;51.128;4.476;2024-01-30T01:17:38;5.50;;;5.10;;
16393;SDS011;8306;51.128;4.476;2024-01-30T01:20:05;5.83;;;5.33;;
16393;SDS011;8306;51.128;4.476;2024-01-30T01:22:32;5.50;;;5.07;;
16393;SDS011;8306;51.128;4.476;2024-01-30T01:24:58;5.73;;;5.10;;
16393;SDS011;8306;51.128;4.476;2024-01-30T01:27:24;5.83;;;5.30;;
16393;SDS011;8306;51.128;4.476;2024-01-30T01:29:51;5.27;;;4.87;;
16393;SDS011;8306;51.128;4.476;2024-01-30T01:32:17;5.53;;;5.13;;
16393;SDS011;8306;51.128;4.476;2024-01-30T01:34:44;5.83;;;5.17;;
16393;SDS011;8306;51.128;4.476;2024-01-30T01:37:10;5.70;;;5.20;;
16393;SDS011;8306;51.128;4.476;2024-01-30T01:39:37;5.80;;;5.27;;
16393;SDS011;8306;51.128;4.476;2024-01-30T01:42:03;5.60;;;5.17;;
16393;SDS011;8306;51.128;4.476;2024-01-30T01:44:30;5.93;;;5.43;;
16393;SDS011;8306;51.128;4.476;2024-01-30T01:46:56;5.80;;;5.30;;
16393;SDS011;8306;51.128;4.476;2024-01-30T01:49:24;5.30;;;4.80;;
16393;SDS011;8306;51.128;4.476;2024-01-30T01:51:52;5.77;;;5.30;;
16393;SDS011;8306;51.128;4.476;2024-01-30T01:54:18;5.30;;;4.90;;
16393;SDS011;8306;51.128;4.476;2024-01-30T01:56:45;5.53;;;5.03;;
16393;SDS011;8306;51.128;4.476;2024-01-30T01:59:11;8.57;;;4.93;;
16393;SDS011;8306;51.128;4.476;2024-01-30T02:01:38;5.57;;;5.07;;
16393;SDS011;8306;51.128;4.476;2024-01-30T02:04:04;5.17;;;4.77;;
16393;SDS011;8306;51.128;4.476;2024-01-30T02:06:31;5.83;;;5.43;;
16393;SDS011;8306;51.128;4.476;2024-01-30T02:08:57;5.53;;;5.03;;
16393;SDS011;8306;51.128;4.476;2024-01-30T02:11:24;5.07;;;4.67;;
16393;SDS011;8306;51.128;4.476;2024-01-30T02:13:50;5.57;;;5.07;;
16393;SDS011;8306;51.128;4.476;2024-01-30T02:16:17;5.60;;;5.20;;
16393;SDS011;8306;51.128;4.476;2024-01-30T02:18:43;5.40;;;5.00;;
16393;SDS011;8306;51.128;4.476;2024-01-30T02:21:10;5.80;;;5.30;;
16393;SDS011;8306;51.128;4.476;2024-01-30T02:23:36;5.50;;;5.10;;
16393;SDS011;8306;51.128;4.476;2024-01-30T02:26:03;5.77;;;5.27;;
16393;SDS011;8306;51.128;4.476;2024-01-30T02:28:29;5.57;;;5.07;;
16393;SDS011;8306;51.128;4.476;2024-01-30T02:30:55;6.50;;;6.00;;
16393;SDS011;8306;51.128;4.476;2024-01-30T02:33:22;5.67;;;5.07;;
16393;SDS011;8306;51.128;4.476;2024-01-30T02:35:48;5.87;;;5.40;;
16393;SDS011;8306;51.128;4.476;2024-01-30T02:38:15;5.60;;;5.20;;
16393;SDS011;8306;51.128;4.476;2024-01-30T02:40:41;5.30;;;4.80;;
16393;SDS011;8306;51.128;4.476;2024-01-30T02:43:08;5.23;;;4.83;;
16393;SDS011;8306;51.128;4.476;2024-01-30T02:45:34;5.83;;;5.27;;
16393;SDS011;8306;51.128;4.476;2024-01-30T02:48:01;5.90;;;5.40;;
16393;SDS011;8306;51.128;4.476;2024-01-30T02:50:27;5.70;;;5.20;;
16393;SDS011;8306;51.128;4.476;2024-01-30T02:52:54;5.80;;;5.30;;
16393;SDS011;8306;51.128;4.476;2024-01-30T02:55:20;6.03;;;5.53;;
16393;SDS011;8306;51.128;4.476;2024-01-30T02:57:47;6.17;;;5.67;;
16393;SDS011;8306;51.128;4.476;2024-01-30T03:00:13;5.80;;;5.30;;
16393;SDS011;8306;51.128;4.476;2024-01-30T03:02:40;6.10;;;5.50;;
16393;SDS011;8306;51.128;4.476;2024-01-30T03:05:06;5.93;;;5.43;;
16393;SDS011;8306;51.128;4.476;2024-01-30T03:07:33;5.60;;;5.10;;
16393;SDS011;8306;51.128;4.476;2024-01-30T03:09:59;5.43;;;4.93;;
16393;SDS011;8306;51.128;4.476;2024-01-30T03:12:26;5.67;;;5.17;;
16393;SDS011;8306;51.128;4.476;2024-01-30T03:14:52;6.33;;;5.73;;
16393;SDS011;8306;51.128;4.476;2024-01-30T03:17:18;5.73;;;5.17;;
16393;SDS011;8306;51.128;4.476;2024-01-30T03:19:45;6.00;;;5.50;;
16393;SDS011;8306;51.128;4.476;2024-01-30T03:22:11;5.63;;;5.13;;
16393;SDS011;8306;51.128;4.476;2024-01-30T03:24:38;6.10;;;5.50;;
16393;SDS011;8306;51.128;4.476;2024-01-30T03:27:04;5.50;;;5.00;;
16393;SDS011;8306;51.128;4.476;2024-01-30T03:29:31;5.70;;;5.20;;
16393;SDS011;8306;51.128;4.476;2024-01-30T03:31:57;5.70;;;5.20;;
16393;SDS011;8306;51.128;4.476;2024-01-30T03:34:24;5.53;;;5.03;;
16393;SDS011;8306;51.128;4.476;2024-01-30T03:36:50;5.37;;;4.90;;
16393;SDS011;8306;51.128;4.476;2024-01-30T03:39:17;5.37;;;4.93;;
16393;SDS011;8306;51.128;4.476;2024-01-30T03:41:43;5.50;;;5.00;;
16393;SDS011;8306;51.128;4.476;2024-01-30T03:44:10;5.13;;;4.73;;
16393;SDS011;8306;51.128;4.476;2024-01-30T03:46:36;6.27;;;5.67;;
16393;SDS011;8306;51.128;4.476;2024-01-30T03:49:03;5.90;;;5.30;;
16393;SDS011;8306;51.128;4.476;2024-01-30T03:51:29;5.83;;;5.33;;
16393;SDS011;8306;51.128;4.476;2024-01-30T03:53:56;5.20;;;4.80;;
16393;SDS011;8306;51.128;4.476;2024-01-30T03:56:22;5.40;;;4.90;;
16393;SDS011;8306;51.128;4.476;2024-01-30T03:58:49;5.67;;;5.13;;
16393;SDS011;8306;51.128;4.476;2024-01-30T04:01:15;5.17;;;4.57;;
16393;SDS011;8306;51.128;4.476;2024-01-30T04:03:42;6.00;;;5.50;;
16393;SDS011;8306;51.128;4.476;2024-01-30T04:06:08;5.63;;;5.20;;
16393;SDS011;8306;51.128;4.476;2024-01-30T04:08:35;5.67;;;5.17;;
16393;SDS011;8306;51.128;4.476;2024-01-30T04:11:04;6.37;;;5.07;;
16393;SDS011;8306;51.128;4.476;2024-01-30T04:13:30;5.57;;;5.00;;
16393;SDS011;8306;51.128;4.476;2024-01-30T04:15:58;5.73;;;4.93;;
16393;SDS011;8306;51.128;4.476;2024-01-30T04:18:23;5.33;;;4.83;;
16393;SDS011;8306;51.128;4.476;2024-01-30T04:20:50;5.77;;;4.67;;
16393;SDS011;8306;51.128;4.476;2024-01-30T04:23:16;6.63;;;4.70;;
16393;SDS011;8306;51.128;4.476;2024-01-30T04:25:43;5.83;;;4.77;;
16393;SDS011;8306;51.128;4.476;2024-01-30T04:28:09;5.70;;;5.20;;
16393;SDS011;8306;51.128;4.476;2024-01-30T04:30:36;5.93;;;5.43;;
16393;SDS011;8306;51.128;4.476;2024-01-30T04:33:02;5.40;;;4.90;;
16393;SDS011;8306;51.128;4.476;2024-01-30T04:35:29;5.50;;;5.03;;
16393;SDS011;8306;51.128;4.476;2024-01-30T04:37:55;5.60;;;5.17;;
16393;SDS011;8306;51.128;4.476;2024-01-30T04:40:22;5.40;;;4.90;;
16393;SDS011;8306;51.128;4.476;2024-01-30T04:42:48;4.93;;;4.40;;
16393;SDS011;8306;51.128;4.476;2024-01-30T04:45:15;5.30;;;4.90;;
16393;SDS011;8306;51.128;4.476;2024-01-30T04:47:41;5.27;;;4.83;;
16393;SDS011;8306;51.128;4.476;2024-01-30T04:50:08;6.73;;;4.90;;
16393;SDS011;8306;51.128;4.476;2024-01-30T04:52:34;4.83;;;4.43;;
16393;SDS011;8306;51.128;4.476;2024-01-30T04:55:00;5.80;;;5.20;;
16393;SDS011;8306;51.128;4.476;2024-01-30T04:57:27;5.40;;;4.90;;
16393;SDS011;8306;51.128;4.476;2024-01-30T04:59:53;5.43;;;4.93;;
16393;SDS011;8306;51.128;4.476;2024-01-30T05:02:20;5.67;;;5.20;;
16393;SDS011;8306;51.128;4.476;2024-01-30T05:04:46;5.20;;;4.70;;
16393;SDS011;8306;51.128;4.476;2024-01-30T05:07:13;5.73;;;5.23;;
16393;SDS011;8306;51.128;4.476;2024-01-30T05:09:39;6.93;;;5.23;;
16393;SDS011;8306;51.128;4.476;2024-01-30T05:12:06;5.57;;;4.77;;
16393;SDS011;8306;51.128;4.476;2024-01-30T05:14:32;5.60;;;5.13;;
16393;SDS011;8306;51.128;4.476;2024-01-30T05:16:59;6.03;;;5.30;;
16393;SDS011;8306;51.128;4.476;2024-01-30T05:19:25;5.40;;;4.90;;
16393;SDS011;8306;51.128;4.476;2024-01-30T05:21:52;6.60;;;5.80;;
16393;SDS011;8306;51.128;4.476;2024-01-30T05:24:18;5.97;;;5.40;;
16393;SDS011;8306;51.128;4.476;2024-01-30T05:26:45;5.67;;;5.00;;
16393;SDS011;8306;51.128;4.476;2024-01-30T05:29:11;5.53;;;5.13;;
16393;SDS011;8306;51.128;4.476;2024-01-30T05:31:38;6.00;;;5.40;;
16393;SDS011;8306;51.128;4.476;2024-01-30T05:34:04;5.93;;;5.40;;
16393;SDS011;8306;51.128;4.476;2024-01-30T05:36:31;7.40;;;5.40;;
16393;SDS011;8306;51.128;4.476;2024-01-30T05:38:57;5.90;;;5.30;;
16393;SDS011;8306;51.128;4.476;2024-01-30T05:41:24;6.40;;;5.40;;
16393;SDS011;8306;51.128;4.476;2024-01-30T05:43:50;6.00;;;5.43;;
16393;SDS011;8306;51.128;4.476;2024-01-30T05:46:19;5.97;;;5.47;;
16393;SDS011;8306;51.128;4.476;2024-01-30T05:48:46;6.17;;;5.60;;
16393;SDS011;8306;51.128;4.476;2024-01-30T05:51:12;6.83;;;5.80;;
16393;SDS011;8306;51.128;4.476;2024-01-30T05:53:39;5.97;;;5.47;;
16393;SDS011;8306;51.128;4.476;2024-01-30T05:56:06;6.30;;;5.70;;
16393;SDS011;8306;51.128;4.476;2024-01-30T05:58:31;6.37;;;5.87;;
16393;SDS011;8306;51.128;4.476;2024-01-30T06:00:58;7.77;;;5.60;;
16393;SDS011;8306;51.128;4.476;2024-01-30T06:03:24;6.80;;;5.63;;
16393;SDS011;8306;51.128;4.476;2024-01-30T06:05:51;6.60;;;6.00;;
16393;SDS011;8306;51.128;4.476;2024-01-30T06:08:18;6.30;;;5.50;;
16393;SDS011;8306;51.128;4.476;2024-01-30T06:10:44;6.87;;;5.87;;
16393;SDS011;8306;51.128;4.476;2024-01-30T06:13:10;6.10;;;5.57;;
16393;SDS011;8306;51.128;4.476;2024-01-30T06:15:37;7.07;;;5.47;;
16393;SDS011;8306;51.128;4.476;2024-01-30T06:18:03;6.33;;;5.70;;
16393;SDS011;8306;51.128;4.476;2024-01-30T06:20:30;6.50;;;5.83;;
16393;SDS011;8306;51.128;4.476;2024-01-30T06:22:56;6.13;;;5.40;;
16393;SDS011;8306;51.128;4.476;2024-01-30T06:25:23;6.20;;;5.60;;
16393;SDS011;8306;51.128;4.476;2024-01-30T06:27:49;6.20;;;5.20;;
16393;SDS011;8306;51.128;4.476;2024-01-30T06:30:16;6.57;;;5.90;;
16393;SDS011;8306;51.128;4.476;2024-01-30T06:32:42;8.13;;;6.23;;
16393;SDS011;8306;51.128;4.476;2024-01-30T06:35:09;8.73;;;5.70;;
16393;SDS011;8306;51.128;4.476;2024-01-30T06:37:35;6.90;;;6.17;;
16393;SDS011;8306;51.128;4.476;2024-01-30T06:40:02;5.50;;;5.00;;
16393;SDS011;8306;51.128;4.476;2024-01-30T06:42:28;8.40;;;5.97;;
16393;SDS011;8306;51.128;4.476;2024-01-30T06:44:55;7.10;;;6.00;;
16393;SDS011;8306;51.128;4.476;2024-01-30T06:47:21;6.17;;;5.57;;
16393;SDS011;8306;51.128;4.476;2024-01-30T06:49:48;7.13;;;6.07;;
16393;SDS011;8306;51.128;4.476;2024-01-30T06:52:14;6.50;;;5.60;;
16393;SDS011;8306;51.128;4.476;2024-01-30T06:54:41;6.57;;;5.67;;
16393;SDS011;8306;51.128;4.476;2024-01-30T06:57:07;6.37;;;5.77;;
16393;SDS011;8306;51.128;4.476;2024-01-30T06:59:34;6.37;;;5.77;;
16393;SDS011;8306;51.128;4.476;2024-01-30T07:02:00;6.87;;;6.23;;
16393;SDS011;8306;51.128;4.476;2024-01-30T07:04:26;8.57;;;6.10;;
16393;SDS011;8306;51.128;4.476;2024-01-30T07:06:53;6.63;;;5.83;;
16393;SDS011;8306;51.128;4.476;2024-01-30T07:09:19;6.33;;;5.73;;
16393;SDS011;8306;51.128;4.476;2024-01-30T07:11:46;5.90;;;5.40;;
16393;SDS011;8306;51.128;4.476;2024-01-30T07:14:12;6.77;;;5.13;;
16393;SDS011;8306;51.128;4.476;2024-01-30T07:16:39;6.40;;;5.73;;
16393;SDS011;8306;51.128;4.476;2024-01-30T07:19:05;5.50;;;5.00;;
16393;SDS011;8306;51.128;4.476;2024-01-30T07:21:32;6.60;;;6.00;;
16393;SDS011;8306;51.128;4.476;2024-01-30T07:23:58;6.37;;;5.23;;
16393;SDS011;8306;51.128;4.476;2024-01-30T07:26:25;6.27;;;5.67;;
16393;SDS011;8306;51.128;4.476;2024-01-30T07:28:51;6.63;;;6.03;;
16393;SDS011;8306;51.128;4.476;2024-01-30T07:31:18;5.93;;;5.43;;
16393;SDS011;8306;51.128;4.476;2024-01-30T07:33:44;6.17;;;5.60;;
16393;SDS011;8306;51.128;4.476;2024-01-30T07:36:11;7.57;;;5.17;;
16393;SDS011;8306;51.128;4.476;2024-01-30T07:38:37;6.40;;;5.80;;
16393;SDS011;8306;51.128;4.476;2024-01-30T07:41:04;9.10;;;6.17;;
16393;SDS011;8306;51.128;4.476;2024-01-30T07:43:30;6.93;;;5.93;;
16393;SDS011;8306;51.128;4.476;2024-01-30T07:45:57;6.57;;;5.90;;
16393;SDS011;8306;51.128;4.476;2024-01-30T07:48:23;9.23;;;5.73;;
16393;SDS011;8306;51.128;4.476;2024-01-30T07:50:50;6.57;;;5.40;;
16393;SDS011;8306;51.128;4.476;2024-01-30T07:53:16;6.33;;;5.57;;
16393;SDS011;8306;51.128;4.476;2024-01-30T07:55:43;6.63;;;6.03;;
16393;SDS011;8306;51.128;4.476;2024-01-30T07:58:09;6.57;;;5.97;;
16393;SDS011;8306;51.128;4.476;2024-01-30T08:00:35;8.40;;;6.50;;
16393;SDS011;8306;51.128;4.476;2024-01-30T08:03:02;6.47;;;5.87;;
16393;SDS011;8306;51.128;4.476;2024-01-30T08:05:28;6.30;;;5.57;;
16393;SDS011;8306;51.128;4.476;2024-01-30T08:07:55;6.30;;;5.70;;
16393;SDS011;8306;51.128;4.476;2024-01-30T08:10:21;6.90;;;5.63;;
16393;SDS011;8306;51.128;4.476;2024-01-30T08:12:48;7.00;;;6.10;;
16393;SDS011;8306;51.128;4.476;2024-01-30T08:15:14;7.53;;;5.97;;
16393;SDS011;8306;51.128;4.476;2024-01-30T08:17:41;7.90;;;6.30;;
16393;SDS011;8306;51.128;4.476;2024-01-30T08:20:07;6.40;;;5.80;;
16393;SDS011;8306;51.128;4.476;2024-01-30T08:22:34;6.73;;;5.97;;
16393;SDS011;8306;51.128;4.476;2024-01-30T08:25:00;6.73;;;6.03;;
16393;SDS011;8306;51.128;4.476;2024-01-30T08:27:27;7.40;;;6.03;;
16393;SDS011;8306;51.128;4.476;2024-01-30T08:29:53;7.23;;;5.23;;
16393;SDS011;8306;51.128;4.476;2024-01-30T08:32:20;7.90;;;6.30;;
16393;SDS011;8306;51.128;4.476;2024-01-30T08:34:46;6.90;;;5.70;;
16393;SDS011;8306;51.128;4.476;2024-01-30T08:37:13;6.30;;;5.70;;
16393;SDS011;8306;51.128;4.476;2024-01-30T08:39:39;6.33;;;5.47;;
16393;SDS011;8306;51.128;4.476;2024-01-30T08:42:06;6.83;;;6.00;;
16393;SDS011;8306;51.128;4.476;2024-01-30T08:44:32;8.27;;;5.73;;
16393;SDS011;8306;51.128;4.476;2024-01-30T08:46:59;6.53;;;5.83;;
16393;SDS011;8306;51.128;4.476;2024-01-30T08:49:25;6.70;;;5.93;;
16393;SDS011;8306;51.128;4.476;2024-01-30T08:51:52;6.70;;;5.90;;
16393;SDS011;8306;51.128;4.476;2024-01-30T08:54:18;6.50;;;5.90;;
16393;SDS011;8306;51.128;4.476;2024-01-30T08:56:45;6.57;;;5.97;;
16393;SDS011;8306;51.128;4.476;2024-01-30T08:59:11;7.23;;;6.40;;
16393;SDS011;8306;51.128;4.476;2024-01-30T09:01:37;7.77;;;6.40;;
16393;SDS011;8306;51.128;4.476;2024-01-30T09:04:04;6.73;;;5.80;;
16393;SDS011;8306;51.128;4.476;2024-01-30T09:06:30;6.27;;;5.70;;
16393;SDS011;8306;51.128;4.476;2024-01-30T09:08:57;7.77;;;5.87;;
16393;SDS011;8306;51.128;4.476;2024-01-30T09:11:23;6.50;;;5.90;;
16393;SDS011;8306;51.128;4.476;2024-01-30T09:13:50;7.30;;;5.70;;
16393;SDS011;8306;51.128;4.476;2024-01-30T09:16:16;6.20;;;5.60;;
16393;SDS011;8306;51.128;4.476;2024-01-30T09:18:43;6.50;;;5.83;;
16393;SDS011;8306;51.128;4.476;2024-01-30T09:21:09;5.87;;;5.33;;
16393;SDS011;8306;51.128;4.476;2024-01-30T09:23:36;6.53;;;5.93;;
16393;SDS011;8306;51.128;4.476;2024-01-30T09:26:02;6.70;;;5.77;;
16393;SDS011;8306;51.128;4.476;2024-01-30T09:28:29;6.50;;;5.90;;
16393;SDS011;8306;51.128;4.476;2024-01-30T09:30:55;6.53;;;5.83;;
16393;SDS011;8306;51.128;4.476;2024-01-30T09:33:22;10.40;;;6.23;;
16393;SDS011;8306;51.128;4.476;2024-01-30T09:35:48;6.20;;;5.70;;
16393;SDS011;8306;51.128;4.476;2024-01-30T09:38:15;8.27;;;5.77;;
16393;SDS011;8306;51.128;4.476;2024-01-30T09:40:41;8.73;;;6.73;;
16393;SDS011;8306;51.128;4.476;2024-01-30T09:43:08;7.57;;;6.80;;
16393;SDS011;8306;51.128;4.476;2024-01-30T09:45:34;12.20;;;6.93;;
16393;SDS011;8306;51.128;4.476;2024-01-30T09:48:01;7.47;;;5.90;;
16393;SDS011;8306;51.128;4.476;2024-01-30T09:50:27;7.23;;;6.53;;
16393;SDS011;8306;51.128;4.476;2024-01-30T09:52:54;7.27;;;6.40;;
16393;SDS011;8306;51.128;4.476;2024-01-30T09:55:20;9.03;;;6.63;;
16393;SDS011;8306;51.128;4.476;2024-01-30T09:57:47;7.60;;;6.50;;
16393;SDS011;8306;51.128;4.476;2024-01-30T10:00:13;6.73;;;6.13;;
16393;SDS011;8306;51.128;4.476;2024-01-30T10:02:40;6.83;;;6.10;;
16393;SDS011;8306;51.128;4.476;2024-01-30T10:05:07;7.47;;;6.70;;
16393;SDS011;8306;51.128;4.476;2024-01-30T10:07:32;7.03;;;6.40;;
16393;SDS011;8306;51.128;4.476;2024-01-30T10:09:59;7.20;;;6.60;;
16393;SDS011;8306;51.128;4.476;2024-01-30T10:12:26;7.77;;;7.00;;
16393;SDS011;8306;51.128;4.476;2024-01-30T10:14:52;7.50;;;6.80;;
16393;SDS011;8306;51.128;4.476;2024-01-30T10:17:18;7.73;;;7.03;;
16393;SDS011;8306;51.128;4.476;2024-01-30T10:19:45;7.00;;;6.40;;
16393;SDS011;8306;51.128;4.476;2024-01-30T10:22:11;7.90;;;7.10;;
16393;SDS011;8306;51.128;4.476;2024-01-30T10:24:38;6.90;;;6.17;;
16393;SDS011;8306;51.128;4.476;2024-01-30T10:27:05;7.30;;;6.40;;
16393;SDS011;8306;51.128;4.476;2024-01-30T10:29:31;7.07;;;6.37;;
16393;SDS011;8306;51.128;4.476;2024-01-30T10:32:01;8.93;;;6.43;;
16393;SDS011;8306;51.128;4.476;2024-01-30T10:34:27;10.47;;;7.07;;
16393;SDS011;8306;51.128;4.476;2024-01-30T10:36:57;6.23;;;5.73;;
16393;SDS011;8306;51.128;4.476;2024-01-30T10:39:20;5.93;;;5.20;;
16393;SDS011;8306;51.128;4.476;2024-01-30T10:41:47;6.80;;;5.30;;
16393;SDS011;8306;51.128;4.476;2024-01-30T10:44:13;7.90;;;5.60;;
16393;SDS011;8306;51.128;4.476;2024-01-30T10:46:39;6.03;;;5.10;;
16393;SDS011;8306;51.128;4.476;2024-01-30T10:49:06;6.43;;;5.00;;
16393;SDS011;8306;51.128;4.476;2024-01-30T10:51:32;9.00;;;4.63;;
16393;SDS011;8306;51.128;4.476;2024-01-30T10:53:59;9.07;;;4.70;;
16393;SDS011;8306;51.128;4.476;2024-01-30T10:56:25;5.47;;;4.03;;
16393;SDS011;8306;51.128;4.476;2024-01-30T10:58:52;4.30;;;3.37;;
16393;SDS011;8306;51.128;4.476;2024-01-30T11:01:19;3.90;;;3.03;;
16393;SDS011;8306;51.128;4.476;2024-01-30T11:03:45;6.87;;;3.10;;
16393;SDS011;8306;51.128;4.476;2024-01-30T11:06:11;4.23;;;2.70;;
16393;SDS011;8306;51.128;4.476;2024-01-30T11:08:38;6.33;;;2.77;;
16393;SDS011;8306;51.128;4.476;2024-01-30T11:11:04;4.70;;;2.23;;
16393;SDS011;8306;51.128;4.476;2024-01-30T11:13:31;3.30;;;2.30;;
16393;SDS011;8306;51.128;4.476;2024-01-30T11:16:00;4.93;;;2.30;;
16393;SDS011;8306;51.128;4.476;2024-01-30T11:18:28;4.67;;;1.97;;
16393;SDS011;8306;51.128;4.476;2024-01-30T11:20:53;3.57;;;1.23;;
16393;SDS011;8306;51.128;4.476;2024-01-30T11:23:21;2.23;;;0.80;;
16393;SDS011;8306;51.128;4.476;2024-01-30T11:25:46;1.53;;;0.60;;
16393;SDS011;8306;51.128;4.476;2024-01-30T11:28:13;2.00;;;0.70;;
16393;SDS011;8306;51.128;4.476;2024-01-30T11:30:39;1.60;;;0.90;;
16393;SDS011;8306;51.128;4.476;2024-01-30T11:33:06;3.10;;;0.73;;
16393;SDS011;8306;51.128;4.476;2024-01-30T11:35:32;1.67;;;0.63;;
16393;SDS011;8306;51.128;4.476;2024-01-30T11:37:59;1.30;;;0.50;;
16393;SDS011;8306;51.128;4.476;2024-01-30T11:40:26;1.37;;;0.50;;
16393;SDS011;8306;51.128;4.476;2024-01-30T11:42:51;1.73;;;0.67;;
16393;SDS011;8306;51.128;4.476;2024-01-30T11:45:18;1.53;;;0.60;;
16393;SDS011;8306;51.128;4.476;2024-01-30T11:47:44;1.77;;;0.60;;
16393;SDS011;8306;51.128;4.476;2024-01-30T11:50:11;2.27;;;0.60;;
16393;SDS011;8306;51.128;4.476;2024-01-30T11:52:37;1.00;;;0.40;;
16393;SDS011;8306;51.128;4.476;2024-01-30T11:55:04;2.17;;;0.60;;
16393;SDS011;8306;51.128;4.476;2024-01-30T11:57:30;2.50;;;0.50;;
16393;SDS011;8306;51.128;4.476;2024-01-30T11:59:57;2.93;;;0.80;;
16393;SDS011;8306;51.128;4.476;2024-01-30T12:02:23;2.57;;;0.77;;
16393;SDS011;8306;51.128;4.476;2024-01-30T12:04:50;2.67;;;0.63;;
16393;SDS011;8306;51.128;4.476;2024-01-30T12:07:16;1.97;;;0.60;;
16393;SDS011;8306;51.128;4.476;2024-01-30T12:09:51;2.00;;;0.60;;
16393;SDS011;8306;51.128;4.476;2024-01-30T12:12:09;1.53;;;0.50;;
16393;SDS011;8306;51.128;4.476;2024-01-30T12:14:35;1.63;;;0.60;;
16393;SDS011;8306;51.128;4.476;2024-01-30T12:17:02;2.70;;;0.47;;
16393;SDS011;8306;51.128;4.476;2024-01-30T12:19:28;2.60;;;0.40;;
16393;SDS011;8306;51.128;4.476;2024-01-30T12:21:56;1.80;;;0.60;;
16393;SDS011;8306;51.128;4.476;2024-01-30T12:24:21;3.23;;;0.50;;
16393;SDS011;8306;51.128;4.476;2024-01-30T12:26:48;1.17;;;0.60;;
16393;SDS011;8306;51.128;4.476;2024-01-30T12:29:14;3.30;;;0.80;;
16393;SDS011;8306;51.128;4.476;2024-01-30T12:31:41;1.40;;;0.80;;
16393;SDS011;8306;51.128;4.476;2024-01-30T12:34:07;2.27;;;0.70;;
16393;SDS011;8306;51.128;4.476;2024-01-30T12:36:34;2.20;;;0.77;;
16393;SDS011;8306;51.128;4.476;2024-01-30T12:39:01;1.97;;;0.70;;
16393;SDS011;8306;51.128;4.476;2024-01-30T12:41:27;2.77;;;0.70;;
16393;SDS011;8306;51.128;4.476;2024-01-30T12:43:53;2.90;;;0.50;;
16393;SDS011;8306;51.128;4.476;2024-01-30T12:46:20;2.33;;;0.70;;
16393;SDS011;8306;51.128;4.476;2024-01-30T12:48:46;2.17;;;0.60;;
16393;SDS011;8306;51.128;4.476;2024-01-30T12:51:13;2.13;;;0.70;;
16393;SDS011;8306;51.128;4.476;2024-01-30T12:53:39;1.23;;;0.40;;
16393;SDS011;8306;51.128;4.476;2024-01-30T12:56:06;1.37;;;0.63;;
16393;SDS011;8306;51.128;4.476;2024-01-30T12:58:32;2.10;;;0.60;;
16393;SDS011;8306;51.128;4.476;2024-01-30T13:00:59;2.80;;;0.90;;
16393;SDS011;8306;51.128;4.476;2024-01-30T13:03:25;3.00;;;0.90;;
16393;SDS011;8306;51.128;4.476;2024-01-30T13:05:51;1.70;;;0.60;;
16393;SDS011;8306;51.128;4.476;2024-01-30T13:08:18;2.23;;;0.60;;
16393;SDS011;8306;51.128;4.476;2024-01-30T13:10:44;2.30;;;0.70;;
16393;SDS011;8306;51.128;4.476;2024-01-30T13:13:11;2.33;;;0.83;;
16393;SDS011;8306;51.128;4.476;2024-01-30T13:15:37;1.77;;;0.73;;
16393;SDS011;8306;51.128;4.476;2024-01-30T13:18:04;2.13;;;0.90;;
16393;SDS011;8306;51.128;4.476;2024-01-30T13:20:30;2.33;;;0.83;;
16393;SDS011;8306;51.128;4.476;2024-01-30T13:22:57;2.10;;;0.70;;
16393;SDS011;8306;51.128;4.476;2024-01-30T13:25:23;1.83;;;0.73;;
16393;SDS011;8306;51.128;4.476;2024-01-30T13:27:50;2.53;;;1.00;;
16393;SDS011;8306;51.128;4.476;2024-01-30T13:30:16;2.33;;;0.80;;
16393;SDS011;8306;51.128;4.476;2024-01-30T13:32:43;2.13;;;0.87;;
16393;SDS011;8306;51.128;4.476;2024-01-30T13:35:09;3.43;;;1.07;;
16393;SDS011;8306;51.128;4.476;2024-01-30T13:37:36;1.47;;;0.77;;
16393;SDS011;8306;51.128;4.476;2024-01-30T13:40:04;11.17;;;1.30;;
16393;SDS011;8306;51.128;4.476;2024-01-30T13:42:29;5.23;;;1.07;;
16393;SDS011;8306;51.128;4.476;2024-01-30T13:44:55;2.33;;;1.07;;
16393;SDS011;8306;51.128;4.476;2024-01-30T13:47:22;2.63;;;1.17;;
16393;SDS011;8306;51.128;4.476;2024-01-30T13:49:48;3.30;;;1.07;;
16393;SDS011;8306;51.128;4.476;2024-01-30T13:52:15;3.23;;;0.97;;
16393;SDS011;8306;51.128;4.476;2024-01-30T13:54:41;4.07;;;1.40;;
16393;SDS011;8306;51.128;4.476;2024-01-30T13:57:08;5.03;;;1.07;;
16393;SDS011;8306;51.128;4.476;2024-01-30T13:59:34;2.73;;;1.10;;
16393;SDS011;8306;51.128;4.476;2024-01-30T14:02:01;2.67;;;1.10;;
16393;SDS011;8306;51.128;4.476;2024-01-30T14:04:27;2.20;;;0.93;;
16393;SDS011;8306;51.128;4.476;2024-01-30T14:06:53;1.83;;;0.80;;
16393;SDS011;8306;51.128;4.476;2024-01-30T14:09:20;2.70;;;0.90;;
16393;SDS011;8306;51.128;4.476;2024-01-30T14:11:46;2.47;;;0.67;;
16393;SDS011;8306;51.128;4.476;2024-01-30T14:14:13;2.67;;;0.90;;
16393;SDS011;8306;51.128;4.476;2024-01-30T14:16:39;2.70;;;0.80;;
16393;SDS011;8306;51.128;4.476;2024-01-30T14:19:06;2.20;;;0.63;;
16393;SDS011;8306;51.128;4.476;2024-01-30T14:21:32;2.47;;;0.87;;
16393;SDS011;8306;51.128;4.476;2024-01-30T14:23:59;1.70;;;0.50;;
16393;SDS011;8306;51.128;4.476;2024-01-30T14:26:25;1.03;;;0.70;;
16393;SDS011;8306;51.128;4.476;2024-01-30T14:28:52;2.53;;;0.83;;
16393;SDS011;8306;51.128;4.476;2024-01-30T14:31:18;2.27;;;0.83;;
16393;SDS011;8306;51.128;4.476;2024-01-30T14:33:45;1.83;;;0.70;;
16393;SDS011;8306;51.128;4.476;2024-01-30T14:36:11;3.57;;;0.87;;
16393;SDS011;8306;51.128;4.476;2024-01-30T14:38:38;1.30;;;0.60;;
16393;SDS011;8306;51.128;4.476;2024-01-30T14:41:04;2.87;;;0.80;;
16393;SDS011;8306;51.128;4.476;2024-01-30T14:43:31;2.97;;;0.90;;
16393;SDS011;8306;51.128;4.476;2024-01-30T14:45:57;2.83;;;0.90;;
16393;SDS011;8306;51.128;4.476;2024-01-30T14:48:24;0.90;;;0.60;;
16393;SDS011;8306;51.128;4.476;2024-01-30T14:50:50;4.37;;;1.13;;
16393;SDS011;8306;51.128;4.476;2024-01-30T14:53:17;5.00;;;0.97;;
16393;SDS011;8306;51.128;4.476;2024-01-30T14:55:43;4.80;;;1.17;;